Bass River, Massachusetts
Current Conditions -  °F | °C
As of 6:56 AM on Thursday 18 Dec 2014 (Local Time) from KHYA Reporting Station
Light Rain Light Rain  
Wind Chill: 32°   Ceiling: 4300
Heat Index: 39°   Visibility: 10mi
Dew Point: 30°   Wind: 12mph
Humidity: 70%   Direction: 280°W
Pressure: 29.72"   Gusts: 21mph
Location:  41.6739°N, 70.1961°W
Report Text: KHYA 181156Z 28010G18KT 10SM -RA SCT036 BKN043 OVC050 04/M01 A2972 RMK AO2 RAB15 SLP066 P0000 60000 70001 T00391011 10056 20039 53007
Loading
Personal Weather Stations






























Interactive Weather Map New forecast layout! Learn more

10-Day Weather Forecast

Advertisements
Track Severe Weather on mobile